Terminal Aerodrome Forecast
Issued by NWS Grand Forks, ND

Home | Current Version | Previous Version | Text Only | Print | Product List | Glossary Off
Versions: 1 2 3 4 5 6 7 8 9 10 11 12 13 14 15 16 17

826
FTUS43 KFGF 211120
TAFGFK
TAF
KGFK 211120Z 2112/2212 16008KT P6SM SCT250
     FM211500 17013KT P6SM VCSH BKN080
     FM211900 20016G24KT P6SM BKN120
     FM212300 26014KT P6SM SCT200
     FM220600 27004KT P6SM FEW250=

USA.gov is the U.S. government's official web portal to all federal, state and local government web resources and services.